Time;durP1;ratioP1;P1;durP2;ratioP2;P2;SDS_P1;SDS_P2;PMS_P1;PMS_P2;Temp;Humidity;BMP_temperature;BMP_pressure;BME280_temperature;BME280_humidity;BME280_pressure;Samples;Min_cycle;Max_cycle;Signal;HPM_P1;HPM_P2
2022/12/19 00:01:56;;;;;;;15.77;10.93;;;;;;;8.25;61.74;96336.97;5090129;28;20185;-46
2022/12/19 00:04:23;;;;;;;12.63;9.77;;;;;;;8.25;61.90;96342.06;5089678;28;20194;-46
2022/12/19 00:06:50;;;;;;;15.77;11.37;;;;;;;8.24;61.83;96338.66;5089353;28;20226;-45
2022/12/19 00:09:17;;;;;;;15.50;10.80;;;;;;;8.24;61.80;96345.50;5089156;28;20194;-46
2022/12/19 00:11:44;;;;;;;15.30;10.67;;;;;;;8.24;61.84;96342.94;5089355;28;20204;-48
2022/12/19 00:14:11;;;;;;;15.53;10.63;;;;;;;8.20;61.97;96341.47;5088942;28;20258;-45
2022/12/19 00:16:38;;;;;;;15.50;10.47;;;;;;;8.21;61.88;96343.13;5089343;28;20181;-46
2022/12/19 00:19:06;;;;;;;14.63;10.70;;;;;;;8.22;61.96;96350.69;5088685;28;20189;-46
2022/12/19 00:21:35;;;;;;;14.67;11.03;;;;;;;8.22;61.97;96352.41;5069451;28;20206;-45
2022/12/19 00:24:01;;;;;;;13.63;9.80;;;;;;;8.20;61.94;96346.56;5069056;28;20201;-46
2022/12/19 00:26:30;;;;;;;15.70;10.27;;;;;;;8.08;61.75;96330.22;5068753;28;20688;-45
2022/12/19 00:28:58;;;;;;;13.20;10.03;;;;;;;8.21;61.91;96353.31;5088626;28;20274;-46
2022/12/19 00:31:27;;;;;;;13.93;10.77;;;;;;;8.21;61.91;96359.25;5088760;28;20186;-45
2022/12/19 00:33:54;;;;;;;13.03;9.70;;;;;;;8.20;61.84;96346.56;5089273;28;20270;-47
2022/12/19 00:36:24;;;;;;;14.43;10.43;;;;;;;8.21;61.95;96351.59;5088781;28;20197;-46
2022/12/19 00:38:52;;;;;;;12.57;9.60;;;;;;;8.21;61.94;96360.97;5089347;28;20189;-46
2022/12/19 00:41:21;;;;;;;13.90;10.07;;;;;;;8.20;61.74;96360.16;5088592;28;20193;-46
2022/12/19 00:43:52;;;;;;;16.33;10.27;;;;;;;8.21;62.18;96358.41;5089080;28;20181;-46
2022/12/19 00:46:19;;;;;;;14.23;10.70;;;;;;;8.21;62.03;96360.97;5088817;28;20608;-46
2022/12/19 00:48:46;;;;;;;15.10;10.10;;;;;;;8.21;62.08;96369.44;5088998;28;20214;-47
2022/12/19 00:51:15;;;;;;;17.83;11.17;;;;;;;8.21;61.92;96359.25;5088893;28;20626;-46
2022/12/19 00:53:44;;;;;;;16.10;10.07;;;;;;;8.20;62.07;96357.59;5089357;28;20568;-46
2022/12/19 00:56:13;;;;;;;13.97;10.20;;;;;;;8.20;61.87;96367.81;5087752;28;20221;-46
2022/12/19 00:58:40;;;;;;;14.97;10.20;;;;;;;8.19;62.27;96355.94;5089175;28;20247;-46
2022/12/19 01:01:09;;;;;;;13.37;10.33;;;;;;;8.20;61.95;96369.50;5088628;28;20204;-46
2022/12/19 01:03:35;;;;;;;14.13;9.77;;;;;;;8.18;62.14;96358.56;5089327;28;20224;-46
2022/12/19 01:06:03;;;;;;;14.77;10.20;;;;;;;8.18;62.11;96364.50;5088828;28;20189;-46
2022/12/19 01:08:30;;;;;;;14.83;10.80;;;;;;;8.20;61.99;96370.34;5089033;28;20240;-45
2022/12/19 01:10:59;;;;;;;13.50;10.13;;;;;;;8.18;62.17;96367.03;5086522;28;20668;-46
2022/12/19 01:13:26;;;;;;;15.07;11.23;;;;;;;8.18;62.03;96372.13;5074765;28;20207;-46
2022/12/19 01:15:53;;;;;;;15.23;10.20;;;;;;;8.18;62.14;96374.69;5069810;28;20233;-46
2022/12/19 01:18:20;;;;;;;14.60;10.43;;;;;;;8.18;62.06;96368.78;5068374;28;20244;-46
2022/12/19 01:20:47;;;;;;;14.50;10.30;;;;;;;8.15;62.15;96366.38;5081123;28;20190;-46
2022/12/19 01:23:16;;;;;;;12.93;9.40;;;;;;;8.17;62.12;96372.22;5087071;28;20190;-47
2022/12/19 01:25:43;;;;;;;14.60;11.03;;;;;;;8.14;62.07;96373.19;5070993;28;20197;-47
2022/12/19 01:28:14;;;;;;;15.43;10.43;;;;;;;8.13;62.13;96374.13;5088717;28;20225;-46
2022/12/19 01:30:42;;;;;;;14.83;10.37;;;;;;;8.15;62.16;96384.22;5089065;28;20612;-46
2022/12/19 01:33:11;;;;;;;15.47;10.63;;;;;;;8.14;62.13;96382.56;5088402;28;20196;-46
2022/12/19 01:35:38;;;;;;;14.43;10.40;;;;;;;8.14;62.25;96385.94;5088747;28;20194;-47
2022/12/19 01:38:05;;;;;;;14.80;10.67;;;;;;;8.13;62.11;96370.75;5088180;28;20208;-45
2022/12/19 01:40:32;;;;;;;14.03;10.90;;;;;;;8.11;62.06;96368.25;5088679;28;20576;-46
2022/12/19 01:43:01;;;;;;;12.90;9.90;;;;;;;8.14;62.20;96377.47;5071889;28;20645;-47
2022/12/19 01:45:31;;;;;;;14.43;9.73;;;;;;;8.11;62.19;96377.63;5072476;28;20186;-46
2022/12/19 01:48:07;;;;;;;14.90;11.00;;;;;;;8.11;62.04;96382.72;5071631;28;20230;-47
2022/12/19 01:50:37;;;;;;;14.97;10.70;;;;;;;8.09;62.15;96375.19;5072485;28;20187;-47
2022/12/19 01:53:06;;;;;;;15.63;10.73;;;;;;;8.09;61.99;96370.09;5071562;28;20702;-48
2022/12/19 01:55:34;;;;;;;14.27;10.23;;;;;;;8.05;61.96;96376.25;5072306;28;20280;-47
2022/12/19 01:58:01;;;;;;;13.70;9.93;;;;;;;8.06;62.28;96372.78;5071634;28;20226;-46
2022/12/19 02:00:29;;;;;;;14.17;10.50;;;;;;;8.07;62.21;96369.31;5071774;28;20286;-46
2022/12/19 02:03:00;;;;;;;15.10;10.27;;;;;;;8.05;62.36;96361.78;5071721;28;20198;-46
2022/12/19 02:05:27;;;;;;;16.70;10.23;;;;;;;8.03;62.28;96368.69;5071833;28;20183;-46
2022/12/19 02:07:54;;;;;;;15.77;10.60;;;;;;;8.02;62.27;96366.19;5071450;28;20226;-45
2022/12/19 02:10:21;;;;;;;14.60;10.50;;;;;;;8.04;62.28;96360.13;5071807;28;20187;-45
2022/12/19 02:12:48;;;;;;;14.23;9.87;;;;;;;8.04;62.30;96361.88;5071675;28;20572;-48
2022/12/19 02:15:16;;;;;;;16.43;11.63;;;;;;;8.03;62.27;96363.59;5071468;28;20657;-46
2022/12/19 02:17:59;;;;;;;16.40;11.37;;;;;;;8.02;62.29;96361.94;5071574;28;20559;-47
2022/12/19 02:20:52;;;;;;;15.83;11.10;;;;;;;8.01;62.32;96351.81;5071802;28;20244;-47
2022/12/19 02:23:41;;;;;;;15.70;10.90;;;;;;;8.01;62.31;96364.56;5070770;28;20205;-46
2022/12/19 02:26:33;;;;;;;14.30;10.13;;;;;;;7.99;62.26;96364.66;5071643;28;20187;-46
2022/12/19 02:29:15;;;;;;;15.57;10.50;;;;;;;7.97;62.22;96370.72;5071454;28;20233;-46
2022/12/19 02:31:49;;;;;;;13.77;10.43;;;;;;;7.97;62.25;96380.91;5071082;28;20186;-47
2022/12/19 02:34:22;;;;;;;15.10;11.43;;;;;;;7.96;62.31;96380.09;5070994;28;20185;-46
2022/12/19 02:36:55;;;;;;;13.87;10.83;;;;;;;7.97;62.22;96378.38;5071118;28;20195;-46
2022/12/19 02:39:26;;;;;;;17.83;11.77;;;;;;;7.97;62.26;96381.72;5072684;28;20543;-45
2022/12/19 02:41:56;;;;;;;16.40;10.23;;;;;;;7.97;62.38;96383.47;5091042;28;20193;-45
2022/12/19 02:44:31;;;;;;;13.93;10.43;;;;;;;7.90;62.32;96370.22;5091106;28;20193;-45
2022/12/19 02:47:02;;;;;;;13.63;10.77;;;;;;;7.95;62.35;96380.19;5082163;28;20197;-47
2022/12/19 02:49:30;;;;;;;12.80;10.23;;;;;;;7.95;62.31;96377.63;5071108;28;20206;-47
2022/12/19 02:51:57;;;;;;;15.40;10.83;;;;;;;7.94;62.29;96371.69;5069991;28;20256;-47
2022/12/19 02:54:24;;;;;;;16.03;11.27;;;;;;;7.94;62.33;96371.69;5074307;28;20251;-46
2022/12/19 02:56:55;;;;;;;14.03;9.77;;;;;;;7.94;62.35;96366.59;5090488;28;20240;-46
2022/12/19 02:59:37;;;;;;;14.93;11.03;;;;;;;7.94;62.30;96364.06;5090721;28;20190;-45
2022/12/19 03:02:13;;;;;;;14.27;11.00;;;;;;;7.94;62.29;96363.22;5090907;28;20209;-46
2022/12/19 03:04:48;;;;;;;16.53;10.40;;;;;;;7.93;62.34;96359.88;5090691;28;20649;-46
2022/12/19 03:07:25;;;;;;;15.43;10.73;;;;;;;7.92;62.35;96345.50;5090922;28;20284;-48
2022/12/19 03:09:58;;;;;;;14.47;10.27;;;;;;;7.91;62.39;96348.13;5080112;28;20201;-45
2022/12/19 03:12:32;;;;;;;16.57;10.70;;;;;;;7.73;62.21;96320.19;5070488;28;20653;-45
2022/12/19 03:14:59;;;;;;;15.30;11.23;;;;;;;7.90;62.34;96347.31;5070319;28;20656;-46
2022/12/19 03:17:28;;;;;;;13.37;10.27;;;;;;;7.89;62.24;96347.38;5070379;28;20189;-45
2022/12/19 03:19:56;;;;;;;14.80;10.23;;;;;;;7.89;62.12;96352.47;5070111;28;20637;-46
2022/12/19 03:22:23;;;;;;;16.30;11.67;;;;;;;7.89;62.24;96355.84;5088805;28;20182;-45
2022/12/19 03:24:50;;;;;;;14.27;11.20;;;;;;;7.90;62.32;96359.19;5090575;28;20189;-46
2022/12/19 03:27:25;;;;;;;15.77;10.27;;;;;;;7.90;62.45;96366.84;5090098;28;20190;-47
2022/12/19 03:29:56;;;;;;;17.37;11.33;;;;;;;7.86;62.28;96361.09;5090628;28;20240;-47
2022/12/19 03:32:25;;;;;;;14.83;10.40;;;;;;;7.88;62.38;96363.56;5090218;28;20182;-46
2022/12/19 03:34:59;;;;;;;17.90;11.60;;;;;;;7.88;62.11;96371.22;5090230;28;20637;-48
2022/12/19 03:37:29;;;;;;;14.27;10.40;;;;;;;7.38;62.29;96296.50;5090741;28;20212;-46
2022/12/19 03:40:01;;;;;;;14.37;11.33;;;;;;;7.87;62.26;96385.66;5089213;28;20240;-47
2022/12/19 03:45:23;;;;;;;16.03;11.60;;;;;;;7.86;61.96;96375.53;5090043;28;20177;-47
2022/12/19 03:47:56;;;;;;;16.60;10.40;;;;;;;7.87;62.17;96377.22;5090036;28;20182;-47
2022/12/19 03:50:29;;;;;;;15.70;12.00;;;;;;;7.84;62.17;96377.34;5089966;28;20248;-47
2022/12/19 03:53:03;;;;;;;14.73;10.67;;;;;;;7.83;62.19;96381.63;5089336;28;20764;-47
2022/12/19 03:55:36;;;;;;;15.10;11.13;;;;;;;7.85;62.15;96381.53;5089627;28;20663;-47
2022/12/19 03:58:09;;;;;;;16.70;11.33;;;;;;;7.84;62.23;96387.53;5089723;28;20233;-46
2022/12/19 04:00:38;;;;;;;15.63;11.47;;;;;;;7.83;62.33;96394.38;5089706;28;20210;-47
2022/12/19 04:03:05;;;;;;;18.03;12.23;;;;;;;7.83;62.21;96399.47;5090190;28;20202;-46
2022/12/19 04:05:35;;;;;;;18.30;11.73;;;;;;;7.83;62.17;96396.09;5089849;28;20193;-46
2022/12/19 04:08:07;;;;;;;14.70;10.37;;;;;;;7.81;62.09;96408.88;5083115;28;20258;-47
2022/12/19 04:10:38;;;;;;;16.13;11.80;;;;;;;7.81;62.21;96406.34;5069401;28;20649;-49
2022/12/19 04:13:10;;;;;;;16.13;11.03;;;;;;;7.80;62.14;96408.06;5069525;28;20191;-48
2022/12/19 04:15:47;;;;;;;14.50;10.80;;;;;;;7.73;62.15;96409.31;5069182;28;20896;-45
2022/12/19 04:18:15;;;;;;;17.37;11.67;;;;;;;7.77;62.16;96415.88;5069622;28;20212;-46
2022/12/19 04:20:50;;;;;;;16.30;10.87;;;;;;;7.75;62.16;96412.59;5070320;28;20285;-47
2022/12/19 04:23:21;;;;;;;14.30;10.27;;;;;;;7.70;62.10;96412.00;5069183;28;20201;-47
2022/12/19 04:25:52;;;;;;;14.90;10.73;;;;;;;7.77;62.12;96426.06;5069402;28;20267;-46
2022/12/19 04:28:25;;;;;;;15.40;10.37;;;;;;;7.77;61.96;96425.22;5069248;28;20698;-47
2022/12/19 04:30:53;;;;;;;14.83;9.87;;;;;;;7.74;62.09;96413.50;5068894;28;20190;-48
2022/12/19 04:33:20;;;;;;;15.50;11.00;;;;;;;7.70;62.12;96406.09;5069217;28;20200;-47
2022/12/19 04:35:48;;;;;;;16.03;10.83;;;;;;;7.72;61.97;96407.63;5069088;28;20183;-45
2022/12/19 04:38:15;;;;;;;16.33;11.83;;;;;;;7.75;62.04;96411.75;5069147;28;20197;-45
2022/12/19 04:40:42;;;;;;;17.17;10.80;;;;;;;7.75;62.01;96414.31;5068903;28;20677;-46
2022/12/19 04:43:09;;;;;;;16.57;11.13;;;;;;;7.74;62.00;96416.03;5069077;28;20189;-47
2022/12/19 04:45:36;;;;;;;15.73;11.47;;;;;;;7.75;61.98;96419.41;5068618;28;20194;-46
2022/12/19 04:48:02;;;;;;;15.43;11.33;;;;;;;7.73;61.94;96416.94;5069139;28;20189;-46
2022/12/19 04:50:29;;;;;;;15.30;10.90;;;;;;;7.71;61.84;96420.47;5069809;28;20185;-46
2022/12/19 04:52:57;;;;;;;16.37;11.20;;;;;;;7.73;62.04;96427.13;5069087;28;20190;-46
2022/12/19 04:55:24;;;;;;;19.03;12.03;;;;;;;7.72;61.95;96422.09;5068808;28;20534;-46
2022/12/19 04:57:51;;;;;;;17.93;11.57;;;;;;;7.72;62.01;96428.00;5068884;28;20696;-47
2022/12/19 05:00:18;;;;;;;16.17;11.53;;;;;;;7.72;61.95;96434.81;5069183;28;20574;-47
2022/12/19 05:02:45;;;;;;;14.97;11.10;;;;;;;7.71;61.81;96430.63;5069108;28;20190;-47
2022/12/19 05:05:11;;;;;;;15.47;11.27;;;;;;;7.69;61.89;96428.19;5068994;28;20625;-47
2022/12/19 05:07:39;;;;;;;16.47;11.00;;;;;;;7.68;61.76;96428.25;5069125;28;20182;-47
2022/12/19 05:10:08;;;;;;;16.67;11.73;;;;;;;7.64;61.96;96419.97;5068652;28;20222;-47
2022/12/19 05:12:35;;;;;;;15.17;10.90;;;;;;;7.71;61.85;96430.63;5068675;28;20198;-45
2022/12/19 05:15:02;;;;;;;15.63;10.47;;;;;;;7.70;61.98;96429.81;5071316;28;20190;-45
2022/12/19 05:17:28;;;;;;;16.27;10.97;;;;;;;7.67;61.88;96421.50;5072627;28;20186;-48
2022/12/19 05:19:55;;;;;;;16.10;11.17;;;;;;;7.68;61.83;96418.88;5072764;28;20201;-47
2022/12/19 05:22:22;;;;;;;17.40;10.73;;;;;;;7.71;61.86;96425.53;5076448;28;20202;-47
2022/12/19 05:24:49;;;;;;;16.80;11.63;;;;;;;7.71;61.86;96438.28;5083333;28;20272;-47
2022/12/19 05:27:17;;;;;;;18.50;11.80;;;;;;;7.65;61.81;96421.59;5089629;28;20553;-47
2022/12/19 05:29:43;;;;;;;18.30;11.33;;;;;;;7.71;61.69;96434.00;5085110;28;20202;-47
2022/12/19 05:32:10;;;;;;;15.83;11.20;;;;;;;7.71;61.71;96434.00;5092464;28;20189;-48
2022/12/19 05:34:37;;;;;;;16.37;10.97;;;;;;;7.72;61.61;96437.38;5092434;28;20189;-48
2022/12/19 05:37:04;;;;;;;15.03;10.77;;;;;;;7.69;61.70;96438.38;5079509;28;20669;-46
2022/12/19 05:39:31;;;;;;;16.30;11.70;;;;;;;7.70;61.72;96445.09;5072387;28;20618;-48
2022/12/19 05:41:57;;;;;;;15.27;11.33;;;;;;;7.71;61.80;96444.19;5072460;28;20194;-46
2022/12/19 05:44:26;;;;;;;15.70;10.60;;;;;;;7.71;61.78;96443.38;5071941;28;20183;-47
2022/12/19 05:46:52;;;;;;;15.33;10.67;;;;;;;7.70;61.56;96437.47;5072505;28;20189;-50
2022/12/19 05:49:19;;;;;;;16.93;11.13;;;;;;;7.70;61.74;96439.19;5071912;28;20237;-47
2022/12/19 05:51:46;;;;;;;15.23;11.10;;;;;;;7.69;61.83;96435.81;5072507;28;20188;-49
2022/12/19 05:54:13;;;;;;;15.73;10.87;;;;;;;7.69;61.69;96440.09;5082158;28;20193;-47
2022/12/19 05:56:40;;;;;;;14.73;10.60;;;;;;;7.70;61.80;96439.19;5092275;28;20225;-48
2022/12/19 05:59:06;;;;;;;17.63;11.20;;;;;;;7.69;61.63;96437.56;5092147;28;20185;-46
2022/12/19 06:01:35;;;;;;;13.97;8.67;;;;;;;8.33;100.00;96425.75;5079681;28;20198;-47
2022/12/19 06:04:02;;;;;;;17.43;10.43;;;;;;;9.18;100.00;96438.97;5071826;28;20194;-48
2022/12/19 06:06:29;;;;;;;14.93;10.63;;;;;;;9.76;100.00;96445.03;5073242;28;20251;-46
2022/12/19 06:08:58;;;;;;;20.43;10.87;;;;;;;9.94;100.00;96445.69;5071789;28;20229;-47
2022/12/19 06:11:25;;;;;;;12.53;10.23;;;;;;;10.00;99.15;96443.59;5071905;28;20186;-47
2022/12/19 06:13:52;;;;;;;13.27;9.33;;;;;;;9.96;91.94;96447.22;5071576;28;20190;-46
2022/12/19 06:16:22;;;;;;;13.50;9.57;;;;;;;9.89;85.75;96450.25;5071758;28;20178;-46
2022/12/19 06:18:50;;;;;;;18.33;10.37;;;;;;;9.80;82.19;96449.03;5087581;28;20189;-47
2022/12/19 06:21:19;;;;;;;13.43;9.13;;;;;;;9.71;79.83;96459.78;5072805;28;20186;-46
2022/12/19 06:23:46;;;;;;;14.00;10.20;;;;;;;9.59;78.23;96451.13;5071607;28;20189;-47
2022/12/19 06:26:15;;;;;;;16.97;10.87;;;;;;;9.44;76.97;96445.16;5086436;28;20190;-46
2022/12/19 06:28:42;;;;;;;12.50;9.63;;;;;;;9.40;76.39;96458.19;5091804;28;20201;-45
2022/12/19 06:31:10;;;;;;;14.97;11.30;;;;;;;9.29;75.83;96453.69;5081943;28;20664;-46
2022/12/19 06:33:37;;;;;;;16.67;11.57;;;;;;;9.20;75.25;96456.75;5090001;28;20236;-48
2022/12/19 06:36:07;;;;;;;15.63;11.50;;;;;;;9.16;74.77;96461.22;5091398;28;20239;-47
2022/12/19 06:38:35;;;;;;;14.23;10.87;;;;;;;9.09;74.55;96461.63;5090063;28;20600;-46
2022/12/19 06:43:47;;;;;;;16.47;11.70;;;;;;;8.93;74.09;96459.09;5091627;28;20197;-45
2022/12/19 06:46:14;;;;;;;16.50;10.80;;;;;;;8.92;73.90;96460.81;5087830;28;20577;-46
2022/12/19 06:48:41;;;;;;;16.70;11.30;;;;;;;8.87;74.00;96474.75;5090949;28;20193;-47
2022/12/19 06:51:09;;;;;;;18.40;12.70;;;;;;;8.84;73.81;96473.16;5085462;28;20205;-45
2022/12/19 06:53:36;;;;;;;15.73;11.33;;;;;;;8.80;73.48;96475.06;5070802;28;20197;-46
2022/12/19 06:56:03;;;;;;;16.87;11.77;;;;;;;8.78;73.20;96484.53;5070565;28;20571;-46
2022/12/19 06:58:30;;;;;;;18.60;12.23;;;;;;;8.71;72.93;96480.66;5070470;28;20652;-47
2022/12/19 07:00:57;;;;;;;18.63;12.73;;;;;;;8.75;72.61;96492.34;5070206;28;20186;-47
2022/12/19 07:03:28;;;;;;;18.43;12.60;;;;;;;8.73;72.38;96496.72;5075096;28;20595;-47
2022/12/19 07:05:55;;;;;;;15.97;11.43;;;;;;;8.74;72.03;96500.91;5089605;28;20205;-46
2022/12/19 07:08:23;;;;;;;16.30;11.80;;;;;;;8.74;72.16;96500.91;5082841;28;20186;-46
2022/12/19 07:10:51;;;;;;;17.67;12.33;;;;;;;8.72;71.47;96497.63;5070055;28;20226;-45
2022/12/19 07:13:18;;;;;;;19.67;12.57;;;;;;;8.74;71.29;96503.47;5087342;28;20284;-44
2022/12/19 07:15:45;;;;;;;22.73;13.60;;;;;;;8.74;71.01;96506.00;5087180;28;20280;-45
2022/12/19 07:18:12;;;;;;;19.10;13.53;;;;;;;8.71;70.77;96502.78;5089857;28;20560;-45
2022/12/19 07:20:41;;;;;;;16.93;12.30;;;;;;;8.75;70.36;96507.66;5090103;28;20185;-45
2022/12/19 07:23:09;;;;;;;17.90;12.63;;;;;;;8.60;69.79;96474.50;5083028;28;20198;-45
2022/12/19 07:25:38;;;;;;;17.10;11.83;;;;;;;8.80;69.67;96504.84;5070057;28;20194;-46
2022/12/19 07:28:06;;;;;;;19.87;12.83;;;;;;;8.80;69.38;96507.41;5070670;28;20201;-46
2022/12/19 07:30:33;;;;;;;18.10;12.43;;;;;;;8.85;69.26;96509.69;5090107;28;20222;-45
2022/12/19 07:33:00;;;;;;;18.27;12.20;;;;;;;8.83;68.96;96503.88;5086715;28;20190;-46
2022/12/19 07:35:27;;;;;;;17.60;12.77;;;;;;;8.89;68.43;96517.09;5069634;28;20194;-46
2022/12/19 07:37:54;;;;;;;18.33;12.97;;;;;;;8.89;68.03;96514.56;5076138;28;20905;-47
2022/12/19 07:40:21;;;;;;;20.40;13.10;;;;;;;8.43;67.79;96437.16;5075217;28;20206;-46
2022/12/19 07:42:49;;;;;;;18.90;12.53;;;;;;;8.94;67.73;96520.25;5072513;28;20204;-49
2022/12/19 07:45:16;;;;;;;17.40;13.10;;;;;;;8.96;67.44;96522.72;5075636;28;20198;-49
2022/12/19 07:47:43;;;;;;;18.53;12.63;;;;;;;8.98;67.01;96533.66;5075165;28;20197;-45
2022/12/19 07:50:10;;;;;;;17.43;12.60;;;;;;;8.99;66.57;96538.69;5084126;28;20241;-45
2022/12/19 07:52:37;;;;;;;19.17;13.13;;;;;;;9.02;66.48;96545.34;5069721;28;20202;-47
2022/12/19 07:55:04;;;;;;;21.43;14.10;;;;;;;9.03;66.49;96542.72;5069542;28;20264;-46
2022/12/19 07:57:31;;;;;;;22.20;13.03;;;;;;;9.03;65.91;96552.13;5073300;28;20231;-46
2022/12/19 07:59:59;;;;;;;21.23;14.53;;;;;;;9.01;65.93;96553.91;5086693;28;20208;-49
2022/12/19 08:02:26;;;;;;;19.43;13.37;;;;;;;8.99;65.65;96555.75;5087298;28;20201;-46
2022/12/19 08:04:53;;;;;;;22.33;13.63;;;;;;;8.95;65.45;96555.06;5078132;28;20217;-46
2022/12/19 08:07:20;;;;;;;20.60;13.60;;;;;;;8.96;65.51;96558.44;5069252;28;20202;-47
2022/12/19 08:09:46;;;;;;;22.40;14.27;;;;;;;8.95;65.12;96554.25;5085962;28;20216;-46
2022/12/19 08:12:13;;;;;;;19.90;13.97;;;;;;;8.96;65.09;96561.81;5077334;28;20197;-47
2022/12/19 08:14:40;;;;;;;18.70;12.90;;;;;;;8.96;64.98;96558.44;5072961;28;20194;-48
2022/12/19 08:17:08;;;;;;;20.37;13.83;;;;;;;8.96;64.84;96553.34;5076752;28;20244;-45
2022/12/19 08:19:35;;;;;;;22.57;14.23;;;;;;;8.96;64.71;96563.56;5080058;28;20300;-46
2022/12/19 08:22:02;;;;;;;18.00;12.70;;;;;;;8.93;64.59;96561.16;5077409;28;20184;-45
2022/12/19 08:24:29;;;;;;;19.03;13.77;;;;;;;8.96;64.41;96563.56;5076889;28;20198;-47
2022/12/19 08:26:56;;;;;;;20.30;13.03;;;;;;;8.96;64.38;96564.38;5076922;28;20229;-45
2022/12/19 08:29:24;;;;;;;21.57;13.67;;;;;;;8.78;64.27;96535.56;5082968;28;20202;-44
2022/12/19 08:31:51;;;;;;;20.87;13.57;;;;;;;9.00;64.03;96567.59;5080112;28;20568;-45
2022/12/19 08:34:20;;;;;;;18.83;14.07;;;;;;;9.00;64.25;96567.59;5074027;28;20186;-45
2022/12/19 08:36:46;;;;;;;20.97;13.03;;;;;;;9.02;63.83;96560.66;5077087;28;20193;-45
2022/12/19 08:39:13;;;;;;;21.90;14.67;;;;;;;9.04;63.98;96562.22;5076710;28;20194;-45
2022/12/19 08:41:40;;;;;;;23.47;13.67;;;;;;;9.07;63.62;96560.41;5077640;28;20206;-45
2022/12/19 08:44:07;;;;;;;24.80;14.70;;;;;;;9.09;63.77;96564.53;5076958;28;20197;-44
2022/12/19 08:46:33;;;;;;;22.67;14.93;;;;;;;9.09;63.46;96561.16;5078724;28;20201;-48
2022/12/19 08:49:00;;;;;;;26.00;15.43;;;;;;;9.14;63.46;96557.44;5082119;28;20210;-46
2022/12/19 08:51:28;;;;;;;20.33;14.60;;;;;;;9.15;63.15;96548.88;5069659;28;20217;-45
2022/12/19 08:53:55;;;;;;;24.40;15.53;;;;;;;9.18;63.34;96545.34;5077717;28;20208;-47
2022/12/19 08:56:22;;;;;;;21.07;14.57;;;;;;;9.20;63.07;96541.81;5085712;28;20377;-45
2022/12/19 08:58:52;;;;;;;27.37;16.20;;;;;;;9.23;63.00;96539.09;5080532;28;20602;-45
2022/12/19 09:01:22;;;;;;;21.53;15.23;;;;;;;9.27;63.15;96543.13;5079405;28;20197;-46
2022/12/19 09:03:50;;;;;;;24.63;15.10;;;;;;;9.32;62.73;96534.38;5078331;28;20197;-46
2022/12/19 09:06:17;;;;;;;24.73;15.40;;;;;;;9.37;62.84;96533.25;5074154;28;20186;-47
2022/12/19 09:08:45;;;;;;;24.40;16.10;;;;;;;9.42;62.61;96533.81;5077465;28;20197;-47
2022/12/19 09:11:13;;;;;;;25.37;15.67;;;;;;;9.47;62.36;96531.00;5079861;28;20695;-46
2022/12/19 09:13:42;;;;;;;26.47;16.63;;;;;;;9.50;62.48;96528.28;5074349;28;20181;-46
2022/12/19 09:16:12;;;;;;;22.43;15.50;;;;;;;9.55;62.42;96519.44;5082357;28;20183;-46
2022/12/19 09:18:40;;;;;;;23.67;16.87;;;;;;;9.43;62.29;96493.75;5069828;28;20574;-45
2022/12/19 09:21:07;;;;;;;29.20;16.47;;;;;;;9.54;62.22;96504.19;5078040;28;20196;-50
2022/12/19 09:23:35;;;;;;;28.27;16.93;;;;;;;9.76;62.00;96514.03;5077672;28;20193;-45
2022/12/19 09:26:04;;;;;;;25.77;16.47;;;;;;;9.83;62.06;96504.25;5071962;28;20186;-46
2022/12/19 09:28:32;;;;;;;23.53;15.97;;;;;;;9.86;61.70;96492.13;5078055;28;20201;-45
2022/12/19 09:31:00;;;;;;;25.40;16.30;;;;;;;9.89;61.54;96473.25;5073101;28;20220;-46
2022/12/19 09:33:29;;;;;;;26.93;16.50;;;;;;;10.08;61.42;96485.78;5082183;28;20190;-46
2022/12/19 09:35:58;;;;;;;24.27;15.87;;;;;;;10.18;61.41;96492.78;5075855;28;20547;-46
2022/12/19 09:38:26;;;;;;;22.77;15.17;;;;;;;10.18;61.19;96472.34;5076324;28;20216;-47
2022/12/19 09:41:06;;;;;;;23.87;16.47;;;;;;;10.34;61.13;96489.38;5075584;28;20206;-47
2022/12/19 09:43:51;;;;;;;23.90;15.87;;;;;;;10.40;60.90;96478.75;5084410;28;20200;-44
2022/12/19 09:46:19;;;;;;;27.27;16.90;;;;;;;10.44;60.69;96475.09;5079758;28;20665;-45
2022/12/19 09:48:48;;;;;;;22.30;15.30;;;;;;;10.35;60.88;96442.41;5075872;28;20209;-45
2022/12/19 09:51:28;;;;;;;20.87;14.93;;;;;;;10.54;60.87;96466.78;5076545;28;20207;-45
2022/12/19 09:54:02;;;;;;;28.87;15.90;;;;;;;10.61;60.72;96469.78;5073884;28;20194;-47
2022/12/19 09:56:33;;;;;;;26.67;15.47;;;;;;;10.66;60.52;96466.94;5076326;28;20214;-47
2022/12/19 09:59:07;;;;;;;22.67;15.40;;;;;;;10.52;60.54;96432.78;5075237;28;20192;-47
2022/12/19 10:01:42;;;;;;;20.67;14.57;;;;;;;10.78;60.34;96461.88;5077144;28;20201;-45
2022/12/19 10:04:12;;;;;;;24.80;14.63;;;;;;;10.86;60.30;96446.06;5081091;28;20208;-44
2022/12/19 10:06:39;;;;;;;19.93;14.17;;;;;;;10.93;60.31;96457.56;5073945;28;20187;-45
2022/12/19 10:09:12;;;;;;;20.93;14.43;;;;;;;10.99;60.25;96456.34;5076482;28;20193;-45
2022/12/19 10:12:00;;;;;;;30.50;15.90;;;;;;;11.03;60.22;96450.94;5076369;28;20225;-47
2022/12/19 10:14:42;;;;;;;20.77;14.00;;;;;;;11.04;59.85;96439.78;5077157;28;20190;-45
2022/12/19 10:17:21;;;;;;;23.67;14.07;;;;;;;11.10;59.96;96436.03;5075934;28;20186;-45
2022/12/19 10:20:03;;;;;;;21.73;14.57;;;;;;;11.14;59.94;96434.06;5077001;28;20204;-45
2022/12/19 10:22:43;;;;;;;23.70;15.13;;;;;;;11.18;59.82;96431.25;5077133;28;20200;-45
2022/12/19 10:25:42;;;;;;;23.57;13.30;;;;;;;11.23;59.95;96418.13;5076797;28;20254;-46
2022/12/19 10:28:21;;;;;;;21.60;14.10;;;;;;;11.26;59.83;96416.16;5074442;28;20204;-48
2022/12/19 10:31:08;;;;;;;22.57;14.10;;;;;;;11.05;59.68;96371.47;5082290;28;20624;-49
2022/12/19 10:33:42;;;;;;;22.20;14.37;;;;;;;11.28;59.59;96414.34;5073982;28;20281;-47
2022/12/19 10:36:11;;;;;;;19.90;14.13;;;;;;;11.34;59.59;96419.97;5079893;28;20190;-49
2022/12/19 10:38:47;;;;;;;19.37;13.50;;;;;;;11.36;59.83;96418.16;5082188;28;20202;-45
2022/12/19 10:41:20;;;;;;;21.27;13.80;;;;;;;11.38;59.76;96408.63;5078210;28;20194;-48
2022/12/19 10:43:57;;;;;;;20.83;13.43;;;;;;;11.36;59.73;96398.47;5080088;28;20181;-46
2022/12/19 10:46:38;;;;;;;19.87;13.90;;;;;;;11.41;59.56;96399.00;5080545;28;20185;-47
2022/12/19 10:49:13;;;;;;;20.67;13.57;;;;;;;11.48;59.62;96407.09;5078168;28;20587;-47
2022/12/19 10:51:40;;;;;;;19.07;12.90;;;;;;;11.48;59.54;96405.34;5078622;28;20675;-46
2022/12/19 10:54:07;;;;;;;21.87;14.13;;;;;;;11.48;59.31;96392.53;5078813;28;20185;-47
2022/12/19 10:56:35;;;;;;;22.37;13.27;;;;;;;11.52;59.26;96395.72;5081445;28;20268;-47
2022/12/19 10:59:02;;;;;;;20.90;13.60;;;;;;;11.54;59.24;96401.56;5081413;28;20193;-46
2022/12/19 11:01:33;;;;;;;20.43;14.70;;;;;;;11.54;59.27;96396.44;5084924;28;20220;-45
2022/12/19 11:04:18;;;;;;;20.63;14.30;;;;;;;11.56;59.32;96399.72;5079313;28;20197;-44
2022/12/19 11:06:49;;;;;;;22.77;13.43;;;;;;;11.37;59.21;96360.88;5076220;28;20194;-46
2022/12/19 11:09:26;;;;;;;21.57;14.13;;;;;;;11.56;59.16;96397.97;5081807;28;20193;-44
2022/12/19 11:12:11;;;;;;;18.47;13.80;;;;;;;11.56;59.01;96395.41;5074812;28;20225;-47
2022/12/19 11:14:40;;;;;;;20.53;13.53;;;;;;;11.44;59.22;96377.47;5081807;28;20236;-46
2022/12/19 11:17:24;;;;;;;20.27;13.63;;;;;;;11.52;59.27;96386.28;5074521;28;20596;-45
2022/12/19 11:19:50;;;;;;;17.80;13.37;;;;;;;11.50;59.39;96388.13;5076181;28;20194;-45
2022/12/19 11:22:22;;;;;;;20.33;14.10;;;;;;;11.48;59.39;96387.41;5078348;28;20619;-46
2022/12/19 11:24:52;;;;;;;21.70;13.70;;;;;;;11.45;59.19;96387.63;5084899;28;20205;-47
2022/12/19 11:27:37;;;;;;;20.93;12.87;;;;;;;11.44;59.48;96383.44;5083802;28;20259;-45
2022/12/19 11:30:16;;;;;;;20.53;14.00;;;;;;;11.42;59.44;96385.25;5074070;28;20190;-45
2022/12/19 11:32:47;;;;;;;20.23;13.07;;;;;;;11.41;59.33;96377.69;5083272;28;20189;-47
2022/12/19 11:35:22;;;;;;;21.10;13.90;;;;;;;11.41;59.42;96387.94;5078769;28;20214;-45
2022/12/19 11:37:52;;;;;;;19.60;12.97;;;;;;;11.41;59.37;96393.88;5081329;28;20190;-48
2022/12/19 11:40:31;;;;;;;20.73;13.10;;;;;;;11.40;59.32;96387.13;5074601;28;20190;-44
2022/12/19 11:43:06;;;;;;;17.27;12.60;;;;;;;11.39;59.62;96387.19;5086958;28;20201;-47